createdAt,value
2022-08-05T00:00:16.514Z,98185.09
2022-08-05T00:02:50.785Z,98191.50
2022-08-05T00:05:27.054Z,98243.47
2022-08-05T00:08:06.819Z,98335.44
2022-08-05T00:10:52.793Z,98354.28
2022-08-05T00:13:19.878Z,98336.03
2022-08-05T00:15:55.457Z,98289.84
2022-08-05T00:18:24.823Z,98281.19
2022-08-05T00:20:51.721Z,98253.72
2022-08-05T00:23:44.582Z,98267.56
2022-08-05T00:26:07.028Z,98302.44
2022-08-05T00:28:33.709Z,98308.97
2022-08-05T00:31:04.324Z,98292.81
2022-08-05T00:34:54.484Z,98268.88
2022-08-05T00:37:08.907Z,98251.53
2022-08-05T00:39:04.488Z,98254.03
2022-08-05T00:41:46.864Z,98230.81
2022-08-05T00:44:18.826Z,98225.38
2022-08-05T00:46:47.729Z,98251.63
2022-08-05T00:49:20.836Z,98269.25
2022-08-05T00:51:51.067Z,98340.53
2022-08-05T00:54:18.681Z,98327.94
2022-08-05T00:56:51.542Z,98333.78
2022-08-05T00:59:18.468Z,98339.94
2022-08-05T01:01:48.539Z,98318.09
2022-08-05T01:04:15.798Z,98310.81
2022-08-05T01:06:47.892Z,98310.25
2022-08-05T01:09:19.879Z,98250.56
2022-08-05T01:11:49.589Z,98188.16
2022-08-05T01:14:33.748Z,98144.97
2022-08-05T01:17:05.536Z,98126.91
2022-08-05T01:20:01.823Z,98120.63
2022-08-05T01:22:51.354Z,98139.25
2022-08-05T01:25:40.577Z,98168.19
2022-08-05T01:28:18.752Z,98151.22
2022-08-05T01:30:55.323Z,98138.69
2022-08-05T01:33:26.308Z,98146.06
2022-08-05T01:35:57.668Z,98145.16
2022-08-05T01:38:29.061Z,98141.94
2022-08-05T01:41:01.502Z,98149.69
2022-08-05T01:43:30.012Z,98154.56
2022-08-05T01:45:58.403Z,98172.28
2022-08-05T01:48:36.588Z,98181.66
2022-08-05T01:51:12.143Z,98156.47
2022-08-05T01:53:57.230Z,98172.22
2022-08-05T01:58:11.650Z,98204.72
2022-08-05T01:59:20.186Z,98174.34
2022-08-05T02:01:48.138Z,98177.69
2022-08-05T02:04:18.470Z,98196.34
2022-08-05T02:06:45.197Z,98177.69
2022-08-05T02:09:11.968Z,98172.88
2022-08-05T02:11:52.470Z,98134.13
2022-08-05T02:14:32.045Z,98074.66
2022-08-05T02:17:06.613Z,98065.16
2022-08-05T02:19:46.952Z,98073.88
2022-08-05T02:22:17.422Z,98054.13
2022-08-05T02:25:00.100Z,98043.22
2022-08-05T02:27:30.094Z,98043.28
2022-08-05T02:30:16.535Z,98043.16
2022-08-05T02:32:48.080Z,98041.41
2022-08-05T02:35:27.597Z,98028.09
2022-08-05T02:37:56.674Z,98023.28
2022-08-05T02:40:27.556Z,98018.88
2022-08-05T02:42:56.332Z,98033.53
2022-08-05T02:45:25.462Z,98056.94
2022-08-05T02:48:07.428Z,98069.84
2022-08-05T02:50:43.834Z,98098.44
2022-08-05T02:53:12.070Z,98126.34
2022-08-05T02:55:54.358Z,98262.78
2022-08-05T02:58:28.751Z,98277.78
2022-08-05T03:00:56.713Z,98257.97
2022-08-05T03:03:23.886Z,98237.47
2022-08-05T03:06:54.335Z,98236.75
2022-08-05T03:08:42.381Z,98256.06
2022-08-05T03:11:57.200Z,98241.97
2022-08-05T03:14:08.111Z,98240.19
2022-08-05T03:16:35.820Z,98243.91
2022-08-05T03:19:04.285Z,98227.53
2022-08-05T03:21:49.446Z,98226.53
2022-08-05T03:24:29.269Z,98223.84
2022-08-05T03:26:57.143Z,98227.59
2022-08-05T03:29:24.197Z,98244.06
2022-08-05T03:32:11.362Z,98238.13
2022-08-05T03:34:38.613Z,98228.72
2022-08-05T03:37:06.523Z,98227.69
2022-08-05T03:39:38.152Z,98229.56
2022-08-05T03:42:19.483Z,98218.47
2022-08-05T03:44:45.963Z,98212.66
2022-08-05T03:47:14.093Z,98220.31
2022-08-05T03:49:51.585Z,98224.88
2022-08-05T03:52:48.928Z,98255.34
2022-08-05T03:56:06.146Z,98269.53
2022-08-05T03:58:10.703Z,98246.72
2022-08-05T04:00:42.026Z,98249.66
2022-08-05T04:03:26.691Z,98273.09
2022-08-05T04:05:56.782Z,98286.75
2022-08-05T04:08:34.800Z,98307.91
2022-08-05T04:11:07.279Z,98313.56
2022-08-05T04:13:50.369Z,98300.72
2022-08-05T04:16:25.196Z,98293.97
2022-08-05T04:19:00.127Z,98306.22
2022-08-05T04:22:08.506Z,98310.78
2022-08-05T04:24:19.653Z,98311.75
2022-08-05T04:26:49.486Z,98300.72
2022-08-05T04:29:16.496Z,98298.63
2022-08-05T04:31:43.085Z,98301.91
2022-08-05T04:34:18.312Z,98301.84
2022-08-05T04:36:56.257Z,98304.31
2022-08-05T04:39:23.006Z,98305.19
2022-08-05T04:41:51.230Z,98307.03
2022-08-05T04:44:21.309Z,98305.06
2022-08-05T04:46:56.783Z,98301.19
2022-08-05T04:50:00.931Z,98314.34
2022-08-05T04:52:11.850Z,98320.88
2022-08-05T04:54:38.304Z,98316.84
2022-08-05T04:57:04.797Z,98322.63
2022-08-05T04:59:38.319Z,98316.59
2022-08-05T05:02:36.947Z,98309.56
2022-08-05T05:04:52.982Z,98299.94
2022-08-05T05:07:29.747Z,98300.47
2022-08-05T05:10:02.052Z,98278.50
2022-08-05T05:12:29.388Z,98272.78
2022-08-05T05:14:55.903Z,98287.25
2022-08-05T05:17:24.670Z,98296.41
2022-08-05T05:20:09.932Z,98311.94
2022-08-05T05:22:40.845Z,98311.72
2022-08-05T05:25:16.659Z,98312.09
2022-08-05T05:27:53.728Z,98311.19
2022-08-05T05:30:31.325Z,98306.84
2022-08-05T05:33:08.944Z,98325.34
2022-08-05T05:35:43.379Z,98314.03
2022-08-05T05:38:13.533Z,98315.13
2022-08-05T05:40:48.086Z,98319.50
2022-08-05T05:43:56.465Z,98312.63
2022-08-05T05:46:15.957Z,98294.16
2022-08-05T05:48:46.031Z,98282.06
2022-08-05T05:51:25.570Z,98305.56
2022-08-05T05:53:58.858Z,98313.88
2022-08-05T05:56:35.184Z,98308.00
2022-08-05T05:59:05.747Z,98313.22
2022-08-05T06:01:39.510Z,98316.03
2022-08-05T06:04:12.223Z,98308.63
2022-08-05T06:06:41.730Z,98296.22
2022-08-05T06:09:08.969Z,98273.16
2022-08-05T06:11:43.389Z,98260.03
2022-08-05T06:14:28.019Z,98262.19
2022-08-05T06:16:55.433Z,98254.78
2022-08-05T06:19:34.263Z,98250.88
2022-08-05T06:22:06.627Z,98246.03
2022-08-05T06:24:34.936Z,98237.31
2022-08-05T06:27:01.980Z,98238.13
2022-08-05T06:29:52.048Z,98259.50
2022-08-05T06:32:25.276Z,98288.06
2022-08-05T06:34:56.998Z,98314.13
2022-08-05T06:37:57.463Z,98318.50
2022-08-05T06:40:20.767Z,98312.75
2022-08-05T06:42:51.870Z,98297.31
2022-08-05T06:45:20.898Z,98279.19
2022-08-05T06:48:37.245Z,98263.22
2022-08-05T06:50:34.508Z,98239.69
2022-08-05T06:53:11.266Z,98229.31
2022-08-05T06:55:38.449Z,98217.41
2022-08-05T06:58:29.204Z,98230.50
2022-08-05T07:00:57.887Z,98263.34
2022-08-05T07:03:32.574Z,98264.91
2022-08-05T07:05:59.887Z,98263.44
2022-08-05T07:08:27.780Z,98260.72
2022-08-05T07:10:55.418Z,98257.44
2022-08-05T07:13:58.549Z,98271.06
2022-08-05T07:18:01.082Z,98276.22
2022-08-05T07:22:27.887Z,98305.50
2022-08-05T07:24:56.263Z,98326.81
2022-08-05T07:27:22.980Z,98346.84
2022-08-05T07:30:23.976Z,98346.44
2022-08-05T07:32:43.583Z,98345.56
2022-08-05T07:36:05.228Z,98347.56
2022-08-05T07:38:00.762Z,98357.47
2022-08-05T07:40:32.069Z,98355.97
2022-08-05T07:42:59.429Z,98357.03
2022-08-05T07:45:57.493Z,98358.41
2022-08-05T07:49:02.347Z,98370.28
2022-08-05T07:51:08.544Z,98375.06
2022-08-05T07:53:50.449Z,98387.34
2022-08-05T07:57:00.122Z,98382.41
2022-08-05T07:59:04.071Z,98380.78
2022-08-05T08:01:30.606Z,98383.91
2022-08-05T08:03:57.126Z,98373.31
2022-08-05T08:06:28.304Z,98388.13
2022-08-05T08:08:54.986Z,98388.00
2022-08-05T08:11:27.767Z,98383.28
2022-08-05T08:14:08.455Z,98357.63
2022-08-05T08:16:51.123Z,98368.94
2022-08-05T08:20:10.277Z,98373.66
2022-08-05T08:22:09.102Z,98369.31
2022-08-05T08:24:51.271Z,98375.53
2022-08-05T08:27:18.279Z,98394.56
2022-08-05T08:30:05.503Z,98397.63
2022-08-05T08:32:34.188Z,98387.25
2022-08-05T08:35:07.605Z,98393.88
2022-08-05T08:37:45.143Z,98400.72
2022-08-05T08:40:12.775Z,98398.50
2022-08-05T08:42:50.634Z,98405.34
2022-08-05T08:45:27.268Z,98404.34
2022-08-05T08:48:12.621Z,98409.63
2022-08-05T08:51:03.722Z,98399.97
2022-08-05T08:53:37.062Z,98385.84
2022-08-05T08:56:06.158Z,98385.78
2022-08-05T08:58:43.981Z,98403.81
2022-08-05T09:01:15.838Z,98392.56
2022-08-05T09:03:47.760Z,98386.47
2022-08-05T09:06:20.003Z,98396.88
2022-08-05T09:08:48.228Z,98395.66
2022-08-05T09:11:15.227Z,98399.38
2022-08-05T09:14:01.151Z,98398.28
2022-08-05T09:16:29.980Z,98411.84
2022-08-05T09:18:59.403Z,98395.81
2022-08-05T09:22:23.171Z,98395.63
2022-08-05T09:24:15.441Z,98388.06
2022-08-05T09:26:46.580Z,98383.75
2022-08-05T09:29:16.296Z,98384.84
2022-08-05T09:32:51.333Z,98382.03
2022-08-05T09:34:55.271Z,98383.13
2022-08-05T09:38:16.853Z,98377.94
2022-08-05T09:40:41.223Z,98363.13
2022-08-05T09:43:41.752Z,98368.22
2022-08-05T09:46:33.700Z,98376.00
2022-08-05T09:49:19.438Z,98390.84
2022-08-05T09:51:48.763Z,98399.38
2022-08-05T09:54:21.385Z,98390.94
2022-08-05T09:56:57.522Z,98393.75
2022-08-05T09:59:27.966Z,98375.66
2022-08-05T10:01:57.826Z,98366.78
2022-08-05T10:04:36.030Z,98370.44
2022-08-05T10:07:19.840Z,98380.88
2022-08-05T10:10:14.197Z,98369.81
2022-08-05T10:12:57.495Z,98366.47
2022-08-05T10:15:34.385Z,98369.78
2022-08-05T10:18:08.841Z,98368.66
2022-08-05T10:20:39.371Z,98377.72
2022-08-05T10:23:22.183Z,98384.72
2022-08-05T10:25:55.967Z,98378.91
2022-08-05T10:28:29.174Z,98383.69
2022-08-05T10:32:49.433Z,98376.03
2022-08-05T10:33:44.791Z,98373.06
2022-08-05T10:36:11.309Z,98377.38
2022-08-05T10:38:45.077Z,98367.59
2022-08-05T10:41:29.062Z,98378.16
2022-08-05T10:44:18.106Z,98382.97
2022-08-05T10:46:53.889Z,98403.50
2022-08-05T10:49:26.883Z,98415.44
2022-08-05T10:52:00.133Z,98415.16
2022-08-05T10:54:56.456Z,98419.13
2022-08-05T10:57:30.814Z,98410.59
2022-08-05T11:00:19.546Z,98418.31
2022-08-05T11:03:00.347Z,98408.56
2022-08-05T11:06:08.569Z,98424.06
2022-08-05T11:09:24.264Z,98429.72
2022-08-05T11:12:26.674Z,98437.78
2022-08-05T11:15:19.103Z,98428.16
2022-08-05T11:17:59.586Z,98433.19
2022-08-05T11:20:34.954Z,98443.25
2022-08-05T11:24:05.193Z,98442.16
2022-08-05T11:26:32.554Z,98447.41
2022-08-05T11:29:11.879Z,98469.50
2022-08-05T11:31:57.742Z,98467.84
2022-08-05T11:34:51.502Z,98480.44
2022-08-05T11:38:28.890Z,98474.59
2022-08-05T11:41:34.661Z,98470.81
2022-08-05T11:44:07.577Z,98468.50
2022-08-05T11:47:10.565Z,98461.88
2022-08-05T11:49:34.354Z,98463.25
2022-08-05T11:52:01.619Z,98456.84
2022-08-05T11:54:38.252Z,98466.59
2022-08-05T11:57:24.326Z,98469.47
2022-08-05T11:59:53.152Z,98475.16
2022-08-05T12:02:31.510Z,98484.66
2022-08-05T12:05:00.502Z,98478.09
2022-08-05T12:08:04.413Z,98491.38
2022-08-05T12:10:23.061Z,98495.72
2022-08-05T12:12:59.741Z,98493.56
2022-08-05T12:15:35.959Z,98501.16
2022-08-05T12:18:11.092Z,98494.41
2022-08-05T12:20:39.417Z,98499.44
2022-08-05T12:23:11.391Z,98501.25
2022-08-05T12:25:58.299Z,98510.22
2022-08-05T12:28:36.591Z,98504.56
2022-08-05T12:31:04.198Z,98507.97
2022-08-05T12:33:36.511Z,98515.66
2022-08-05T12:36:08.454Z,98517.03
2022-08-05T12:38:40.173Z,98525.56
2022-08-05T12:41:13.956Z,98525.84
2022-08-05T12:43:50.633Z,98527.00
2022-08-05T12:46:29.589Z,98524.16
2022-08-05T12:49:01.693Z,98522.91
2022-08-05T12:52:12.422Z,98514.03
2022-08-05T12:54:48.707Z,98512.19
2022-08-05T12:57:17.086Z,98520.56
2022-08-05T13:01:57.647Z,98527.88
2022-08-05T13:02:35.812Z,98535.03
2022-08-05T13:05:06.190Z,98522.66
2022-08-05T13:07:57.357Z,98534.94
2022-08-05T13:10:19.884Z,98535.19
2022-08-05T13:12:57.114Z,98540.69
2022-08-05T13:15:41.902Z,98539.56
2022-08-05T13:18:20.151Z,98546.69
2022-08-05T13:20:47.445Z,98544.78
2022-08-05T13:23:16.387Z,98548.66
2022-08-05T13:25:52.301Z,98553.88
2022-08-05T13:28:26.613Z,98555.13
2022-08-05T13:30:53.419Z,98553.84
2022-08-05T13:34:20.954Z,98550.53
2022-08-05T13:36:09.320Z,98563.50
2022-08-05T13:38:38.423Z,98572.97
2022-08-05T13:41:12.572Z,98576.69
2022-08-05T13:43:44.466Z,98585.69
2022-08-05T13:46:30.764Z,98598.59
2022-08-05T13:49:10.512Z,98602.19
2022-08-05T13:51:40.932Z,98609.75
2022-08-05T13:54:13.213Z,98606.72
2022-08-05T13:56:45.064Z,98609.97
2022-08-05T13:59:23.717Z,98596.88
2022-08-05T14:01:56.627Z,98599.16
2022-08-05T14:04:50.369Z,98602.53
2022-08-05T14:07:55.796Z,98613.44
2022-08-05T14:10:18.414Z,98600.22
2022-08-05T14:12:48.766Z,98600.44
2022-08-05T14:16:09.128Z,98612.75
2022-08-05T14:18:02.890Z,98605.03
2022-08-05T14:20:31.600Z,98597.50
2022-08-05T14:22:59.279Z,98599.75
2022-08-05T14:25:28.220Z,98602.66
2022-08-05T14:27:55.306Z,98604.97
2022-08-05T14:30:21.996Z,98614.91
2022-08-05T14:32:48.976Z,98630.22
2022-08-05T14:35:16.282Z,98637.53
2022-08-05T14:37:52.114Z,98641.25
2022-08-05T14:40:24.602Z,98657.88
2022-08-05T14:42:52.033Z,98662.41
2022-08-05T14:45:19.166Z,98655.09
2022-08-05T14:48:03.830Z,98652.00
2022-08-05T14:50:33.059Z,98639.81
2022-08-05T14:53:02.749Z,98643.88
2022-08-05T14:55:39.162Z,98644.28
2022-08-05T14:58:12.235Z,98649.00
2022-08-05T15:00:58.561Z,98645.19
2022-08-05T15:03:33.251Z,98637.88
2022-08-05T15:06:07.857Z,98649.34
2022-08-05T15:08:58.008Z,98649.06
2022-08-05T15:11:50.930Z,98655.47
2022-08-05T15:14:11.869Z,98656.38
2022-08-05T15:16:58.320Z,98650.25
2022-08-05T15:19:24.726Z,98641.63
2022-08-05T15:21:51.340Z,98644.09
2022-08-05T15:24:18.375Z,98652.28
2022-08-05T15:26:46.695Z,98654.88
2022-08-05T15:29:15.279Z,98663.63
2022-08-05T15:31:41.774Z,98657.66
2022-08-05T15:34:31.166Z,98663.53
2022-08-05T15:36:54.638Z,98680.56
2022-08-05T15:41:01.992Z,98680.06
2022-08-05T15:42:53.726Z,98682.13
2022-08-05T15:44:54.942Z,98686.63
2022-08-05T15:47:23.711Z,98685.38
2022-08-05T15:49:58.441Z,98684.91
2022-08-05T15:52:52.094Z,98692.94
2022-08-05T15:55:16.627Z,98690.16
2022-08-05T15:57:43.338Z,98701.00
2022-08-05T16:00:11.987Z,98699.16
2022-08-05T16:02:38.651Z,98704.84
2022-08-05T16:05:05.585Z,98699.84
2022-08-05T16:07:36.315Z,98695.09
2022-08-05T16:10:04.188Z,98703.25
2022-08-05T16:12:30.993Z,98710.47
2022-08-05T16:14:57.576Z,98710.56
2022-08-05T16:17:24.368Z,98705.09
2022-08-05T16:20:05.075Z,98704.78
2022-08-05T16:22:37.724Z,98712.22
2022-08-05T16:25:08.024Z,98707.00
2022-08-05T16:27:47.218Z,98721.31
2022-08-05T16:30:26.236Z,98722.09
2022-08-05T16:32:55.055Z,98719.94
2022-08-05T16:35:27.928Z,98724.69
2022-08-05T16:38:02.322Z,98720.44
2022-08-05T16:40:51.668Z,98736.91
2022-08-05T16:43:23.707Z,98730.28
2022-08-05T16:46:03.702Z,98726.41
2022-08-05T16:48:36.051Z,98723.44
2022-08-05T16:51:03.956Z,98727.72
2022-08-05T16:54:03.854Z,98728.25
2022-08-05T16:56:23.615Z,98731.22
2022-08-05T16:58:50.375Z,98732.56
2022-08-05T17:01:17.081Z,98733.50
2022-08-05T17:03:45.502Z,98730.97
2022-08-05T17:06:12.303Z,98739.44
2022-08-05T17:08:52.840Z,98740.53
2022-08-05T17:11:25.496Z,98739.47
2022-08-05T17:14:05.205Z,98735.81
2022-08-05T17:16:35.983Z,98739.75
2022-08-05T17:19:07.542Z,98746.44
2022-08-05T17:21:37.435Z,98738.22
2022-08-05T17:24:28.158Z,98741.91
2022-08-05T17:26:55.821Z,98740.84
2022-08-05T17:29:33.931Z,98751.94
2022-08-05T17:32:16.877Z,98747.53
2022-08-05T17:34:47.514Z,98751.38
2022-08-05T17:37:41.876Z,98747.25
2022-08-05T17:40:01.077Z,98752.09
2022-08-05T17:42:30.177Z,98750.63
2022-08-05T17:44:59.185Z,98760.66
2022-08-05T17:47:26.964Z,98766.16
2022-08-05T17:50:03.907Z,98766.56
2022-08-05T17:52:32.419Z,98766.16
2022-08-05T17:54:59.847Z,98767.63
2022-08-05T17:57:27.772Z,98772.22
2022-08-05T18:00:03.604Z,98775.78
2022-08-05T18:02:32.537Z,98773.94
2022-08-05T18:05:02.736Z,98780.69
2022-08-05T18:07:32.965Z,98781.81
2022-08-05T18:10:10.277Z,98792.75
2022-08-05T18:12:37.468Z,98790.31
2022-08-05T18:15:05.321Z,98794.94
2022-08-05T18:17:59.193Z,98793.72
2022-08-05T18:20:19.590Z,98794.19
2022-08-05T18:22:57.586Z,98797.19
2022-08-05T18:25:25.175Z,98808.31
2022-08-05T18:27:59.165Z,98807.53
2022-08-05T18:30:29.130Z,98801.47
2022-08-05T18:33:00.532Z,98809.25
2022-08-05T18:35:49.565Z,98810.75
2022-08-05T18:38:18.957Z,98827.44
2022-08-05T18:41:56.358Z,98822.91
2022-08-05T18:43:38.151Z,98830.84
2022-08-05T18:46:09.761Z,98837.31
2022-08-05T18:48:41.671Z,98840.06
2022-08-05T18:52:04.811Z,98843.38
2022-08-05T18:54:13.997Z,98853.41
2022-08-05T18:56:40.811Z,98857.13
2022-08-05T18:59:43.059Z,98860.03
2022-08-05T19:01:58.099Z,98865.25
2022-08-05T19:04:25.541Z,98872.75
2022-08-05T19:06:53.650Z,98876.47
2022-08-05T19:09:21.061Z,98882.69
2022-08-05T19:12:01.117Z,98876.84
2022-08-05T19:14:59.390Z,98890.38
2022-08-05T19:17:16.594Z,98902.38
2022-08-05T19:19:47.036Z,98910.16
2022-08-05T19:22:17.248Z,98904.91
2022-08-05T19:24:54.166Z,98907.31
2022-08-05T19:27:22.940Z,98923.78
2022-08-05T19:29:49.940Z,98918.91
2022-08-05T19:32:16.511Z,98919.66
2022-08-05T19:34:54.660Z,98925.66
2022-08-05T19:37:29.985Z,98935.53
2022-08-05T19:40:10.765Z,98943.16
2022-08-05T19:42:38.715Z,98953.63
2022-08-05T19:45:07.109Z,98956.84
2022-08-05T19:47:37.390Z,98963.09
2022-08-05T19:50:07.531Z,98970.88
2022-08-05T19:52:36.885Z,98971.22
2022-08-05T19:55:07.193Z,98982.03
2022-08-05T19:57:48.917Z,98975.69
2022-08-05T20:00:22.891Z,98977.25
2022-08-05T20:02:49.372Z,98983.69
2022-08-05T20:05:24.480Z,98983.97
2022-08-05T20:07:55.039Z,98980.78
2022-08-05T20:10:25.002Z,98982.50
2022-08-05T20:12:51.850Z,98986.59
2022-08-05T20:15:48.907Z,98986.41
2022-08-05T20:18:10.848Z,98988.44
2022-08-05T20:20:56.483Z,98995.38
2022-08-05T20:23:39.397Z,98995.19
2022-08-05T20:26:16.045Z,98994.50
2022-08-05T20:28:44.833Z,99004.34
2022-08-05T20:31:11.327Z,99002.47
2022-08-05T20:33:37.812Z,99015.75
2022-08-05T20:36:09.024Z,99013.91
2022-08-05T20:38:37.658Z,99026.38
2022-08-05T20:41:08.058Z,99026.31
2022-08-05T20:43:59.824Z,99032.03
2022-08-05T20:46:24.961Z,99035.38
2022-08-05T20:48:52.273Z,99031.13
2022-08-05T20:51:18.714Z,99032.34
2022-08-05T20:53:56.564Z,99043.13
2022-08-05T20:56:29.755Z,99043.06
2022-08-05T20:59:00.084Z,99041.00
2022-08-05T21:01:38.853Z,99052.84
2022-08-05T21:04:07.208Z,99045.13
2022-08-05T21:06:37.152Z,99053.22
2022-08-05T21:09:07.813Z,99047.09
2022-08-05T21:12:07.246Z,99061.44
2022-08-05T21:14:26.588Z,99058.81
2022-08-05T21:16:53.291Z,99061.06
2022-08-05T21:19:20.105Z,99057.81
2022-08-05T21:21:50.815Z,99058.94
2022-08-05T21:24:19.611Z,99057.66
2022-08-05T21:26:53.462Z,99067.94
2022-08-05T21:29:26.216Z,99078.34
2022-08-05T21:31:53.646Z,99072.47
2022-08-05T21:34:20.421Z,99073.00
2022-08-05T21:36:49.021Z,99073.53
2022-08-05T21:39:16.789Z,99076.00
2022-08-05T21:41:52.449Z,99072.88
2022-08-05T21:44:27.002Z,99077.22
2022-08-05T21:46:53.737Z,99081.91
2022-08-05T21:49:56.840Z,99079.13
2022-08-05T21:52:21.904Z,99084.56
2022-08-05T21:54:55.117Z,99080.94
2022-08-05T21:57:31.192Z,99088.69
2022-08-05T22:00:10.950Z,99092.63
2022-08-05T22:02:38.335Z,99091.50
2022-08-05T22:05:05.308Z,99089.50
2022-08-05T22:07:40.436Z,99093.91
2022-08-05T22:10:26.611Z,99095.28
2022-08-05T22:12:54.232Z,99090.94
2022-08-05T22:16:01.170Z,99099.84
2022-08-05T22:18:08.607Z,99101.03
2022-08-05T22:20:39.185Z,99099.84
2022-08-05T22:24:03.171Z,99095.69
2022-08-05T22:26:30.581Z,99105.59
2022-08-05T22:28:57.022Z,99110.13
2022-08-05T22:31:24.885Z,99116.34
2022-08-05T22:34:00.953Z,99113.00
2022-08-05T22:36:28.609Z,99120.88
2022-08-05T22:38:56.207Z,99125.03
2022-08-05T22:42:04.354Z,99108.63
2022-08-05T22:44:10.099Z,99121.16
2022-08-05T22:46:40.542Z,99117.97
2022-08-05T22:49:23.009Z,99116.47
2022-08-05T22:52:04.259Z,99114.78
2022-08-05T22:54:34.937Z,99121.47
2022-08-05T22:57:01.574Z,99126.84
2022-08-05T22:59:43.784Z,99131.53
2022-08-05T23:02:17.355Z,99133.03
2022-08-05T23:04:51.957Z,99138.22
2022-08-05T23:07:21.853Z,99140.56
2022-08-05T23:09:57.404Z,99134.47
2022-08-05T23:12:28.604Z,99136.44
2022-08-05T23:14:55.328Z,99138.09
2022-08-05T23:17:34.061Z,99138.38
2022-08-05T23:20:02.616Z,99148.88
2022-08-05T23:22:29.346Z,99147.59
2022-08-05T23:24:57.532Z,99152.34
2022-08-05T23:27:24.406Z,99166.38
2022-08-05T23:29:57.967Z,99167.78
2022-08-05T23:32:24.753Z,99174.03
2022-08-05T23:34:53.809Z,99169.13
2022-08-05T23:37:20.318Z,99166.03
2022-08-05T23:39:54.145Z,99167.28
2022-08-05T23:42:23.568Z,99173.16
2022-08-05T23:44:56.338Z,99171.56
2022-08-05T23:47:24.913Z,99175.00
2022-08-05T23:49:52.319Z,99170.75
2022-08-05T23:52:30.500Z,99172.94
2022-08-05T23:55:02.643Z,99171.28
2022-08-05T23:57:32.388Z,99178.22
